createdAt,value
2019-04-10T00:01:51.787Z,43.93
2019-04-10T00:04:23.124Z,50.63
2019-04-10T00:06:54.230Z,44.87
2019-04-10T00:09:28.233Z,45.80
2019-04-10T00:11:59.020Z,47.07
2019-04-10T00:14:32.430Z,45.07
2019-04-10T00:17:06.932Z,43.90
2019-04-10T00:19:38.690Z,45.73
2019-04-10T00:22:11.743Z,47.63
2019-04-10T00:24:44.702Z,50.47
2019-04-10T00:27:19.320Z,42.60
2019-04-10T00:29:49.816Z,47.00
2019-04-10T00:32:21.644Z,46.57
2019-04-10T00:34:54.015Z,42.23
2019-04-10T00:37:29.727Z,41.43
2019-04-10T00:39:59.750Z,45.70
2019-04-10T00:42:32.904Z,54.07
2019-04-10T00:45:05.990Z,46.73
2019-04-10T00:47:39.304Z,49.67
2019-04-10T00:50:12.612Z,44.83
2019-04-10T00:52:44.856Z,46.63
2019-04-10T00:55:15.377Z,47.37
2019-04-10T00:57:47.855Z,43.10
2019-04-10T01:00:19.190Z,44.90
2019-04-10T01:02:51.272Z,42.87
2019-04-10T01:05:24.858Z,43.23
2019-04-10T01:07:57.133Z,42.93
2019-04-10T01:10:30.455Z,46.07
2019-04-10T01:13:03.003Z,48.17
2019-04-10T01:15:34.468Z,51.47
2019-04-10T01:18:06.741Z,51.60
2019-04-10T01:20:39.802Z,47.83
2019-04-10T01:23:12.118Z,51.73
2019-04-10T01:25:42.978Z,51.63
2019-04-10T01:28:16.203Z,48.07
2019-04-10T01:30:48.674Z,46.10
2019-04-10T01:33:21.336Z,47.20
2019-04-10T01:35:52.027Z,47.40
2019-04-10T01:38:25.115Z,45.93
2019-04-10T01:40:57.071Z,44.10
2019-04-10T01:43:30.920Z,48.40
2019-04-10T01:46:04.183Z,48.27
2019-04-10T01:48:37.024Z,48.03
2019-04-10T01:51:07.489Z,42.93
2019-04-10T01:53:39.119Z,46.80
2019-04-10T01:56:22.845Z,52.00
2019-04-10T01:58:47.703Z,45.20
2019-04-10T02:01:32.455Z,49.23
2019-04-10T02:04:03.029Z,45.10
2019-04-10T02:06:36.222Z,55.27
2019-04-10T02:09:10.939Z,51.00
2019-04-10T02:11:42.200Z,52.50
2019-04-10T02:14:16.224Z,47.17
2019-04-10T02:16:49.347Z,49.13
2019-04-10T02:19:21.899Z,44.93
2019-04-10T02:21:53.791Z,47.90
2019-04-10T02:24:25.205Z,50.23
2019-04-10T02:26:58.162Z,56.80
2019-04-10T02:29:31.314Z,46.13
2019-04-10T02:32:04.202Z,47.60
2019-04-10T02:34:37.000Z,46.80
2019-04-10T02:37:10.862Z,48.73
2019-04-10T02:39:47.741Z,49.93
2019-04-10T02:42:16.479Z,56.23
2019-04-10T02:44:50.081Z,44.80
2019-04-10T02:47:22.919Z,49.13
2019-04-10T02:49:54.520Z,53.03
2019-04-10T02:52:28.416Z,61.33
2019-04-10T02:55:01.876Z,51.33
2019-04-10T02:57:33.798Z,48.97
2019-04-10T03:00:08.353Z,52.30
2019-04-10T03:02:41.994Z,47.53
2019-04-10T03:05:15.994Z,58.50
2019-04-10T03:07:50.493Z,49.23
2019-04-10T03:10:30.062Z,56.03
2019-04-10T03:12:54.422Z,45.93
2019-04-10T03:15:27.230Z,51.20
2019-04-10T03:18:00.808Z,46.70
2019-04-10T03:20:32.188Z,57.37
2019-04-10T03:23:03.422Z,52.70
2019-04-10T03:25:35.176Z,54.00
2019-04-10T03:28:07.125Z,51.33
2019-04-10T03:30:41.416Z,49.47
2019-04-10T03:33:23.874Z,52.00
2019-04-10T03:35:53.244Z,49.47
2019-04-10T03:38:25.719Z,50.10
2019-04-10T03:40:57.714Z,52.10
2019-04-10T03:43:30.684Z,57.27
2019-04-10T03:46:01.691Z,51.47
2019-04-10T03:48:34.618Z,45.50
2019-04-10T03:51:06.577Z,52.10
2019-04-10T03:53:40.366Z,54.13
2019-04-10T03:56:13.732Z,46.70
2019-04-10T03:58:47.501Z,51.73
2019-04-10T04:01:18.748Z,49.20
2019-04-10T04:03:51.145Z,49.53
2019-04-10T04:06:21.787Z,52.97
2019-04-10T04:09:03.253Z,54.07
2019-04-10T04:11:27.710Z,49.63
2019-04-10T04:14:00.879Z,46.37
2019-04-10T04:16:33.740Z,50.30
2019-04-10T04:19:06.661Z,57.50
2019-04-10T04:21:39.697Z,48.13
2019-04-10T04:24:12.912Z,55.43
2019-04-10T04:26:44.874Z,53.37
2019-04-10T04:29:16.396Z,56.73
2019-04-10T04:31:48.455Z,53.70
2019-04-10T04:34:27.105Z,52.13
2019-04-10T04:36:58.142Z,56.40
2019-04-10T04:39:30.515Z,60.23
2019-04-10T04:42:03.055Z,56.00
2019-04-10T04:44:35.486Z,54.93
2019-04-10T04:47:07.697Z,54.37
2019-04-10T04:49:39.973Z,55.03
2019-04-10T04:52:14.163Z,53.03
2019-04-10T04:54:45.659Z,53.37
2019-04-10T04:57:17.086Z,52.17
2019-04-10T04:59:48.846Z,54.83
2019-04-10T05:02:21.846Z,61.20
2019-04-10T05:04:53.830Z,53.87
2019-04-10T05:07:24.696Z,56.00
2019-04-10T05:09:59.135Z,53.40
2019-04-10T05:12:32.209Z,56.20
2019-04-10T05:15:02.985Z,80.77
2019-04-10T05:17:35.193Z,49.60
2019-04-10T05:20:07.015Z,55.40
2019-04-10T05:22:40.084Z,54.73
2019-04-10T05:25:13.176Z,54.83
2019-04-10T05:27:45.161Z,56.67
2019-04-10T05:30:18.416Z,51.43
2019-04-10T05:32:49.424Z,48.80
2019-04-10T05:35:21.045Z,52.17
2019-04-10T05:37:52.071Z,53.27
2019-04-10T05:40:23.893Z,54.93
2019-04-10T05:42:55.514Z,50.77
2019-04-10T05:45:28.315Z,50.23
2019-04-10T05:48:01.144Z,53.70
2019-04-10T05:50:34.122Z,55.07
2019-04-10T05:53:06.134Z,50.23
2019-04-10T05:55:39.221Z,51.50
2019-04-10T05:58:13.301Z,51.63
2019-04-10T06:00:47.129Z,55.40
2019-04-10T06:03:19.327Z,53.78
2019-04-10T06:05:50.807Z,50.43
2019-04-10T06:08:23.752Z,49.63
2019-04-10T06:10:54.298Z,59.63
2019-04-10T06:13:25.673Z,48.23
2019-04-10T06:15:57.386Z,50.17
2019-04-10T06:18:31.306Z,53.47
2019-04-10T06:21:03.318Z,53.90
2019-04-10T06:23:36.375Z,47.90
2019-04-10T06:26:12.649Z,53.20
2019-04-10T06:28:48.526Z,52.83
2019-04-10T06:31:20.688Z,47.43
2019-04-10T06:33:52.804Z,51.87
2019-04-10T06:36:25.111Z,52.63
2019-04-10T06:38:57.379Z,51.73
2019-04-10T06:41:30.554Z,46.77
2019-04-10T06:44:03.687Z,61.47
2019-04-10T06:46:37.560Z,47.23
2019-04-10T06:49:09.405Z,52.30
2019-04-10T06:51:42.971Z,51.90
2019-04-10T06:54:16.462Z,61.57
2019-04-10T06:56:48.867Z,51.10
2019-04-10T06:59:21.531Z,49.03
2019-04-10T07:01:56.697Z,56.70
2019-04-10T07:04:26.674Z,51.27
2019-04-10T07:07:03.432Z,51.00
2019-04-10T07:09:31.814Z,53.13
2019-04-10T07:12:05.313Z,55.50
2019-04-10T07:14:38.003Z,54.27
2019-04-10T07:17:10.698Z,56.50
2019-04-10T07:19:44.027Z,51.37
2019-04-10T07:22:17.362Z,63.93
2019-04-10T07:24:51.384Z,59.57
2019-04-10T07:27:21.921Z,52.03
2019-04-10T07:29:58.039Z,51.90
2019-04-10T07:32:27.853Z,55.30
2019-04-10T07:35:01.884Z,51.27
2019-04-10T07:37:34.718Z,56.37
2019-04-10T07:40:07.928Z,50.80
2019-04-10T07:42:41.863Z,53.03
2019-04-10T07:45:12.916Z,60.30
2019-04-10T07:47:46.226Z,54.97
2019-04-10T07:50:18.757Z,51.90
2019-04-10T07:52:50.053Z,52.63
2019-04-10T07:55:22.810Z,51.60
2019-04-10T07:57:55.209Z,59.57
2019-04-10T08:00:28.537Z,53.37
2019-04-10T08:03:00.897Z,50.10
2019-04-10T08:05:33.831Z,54.77
2019-04-10T08:08:23.631Z,50.30
2019-04-10T08:10:55.967Z,56.57
2019-04-10T08:13:28.792Z,55.87
2019-04-10T08:16:00.828Z,56.90
2019-04-10T08:18:35.026Z,53.90
2019-04-10T08:21:07.169Z,55.83
2019-04-10T08:23:39.798Z,53.53
2019-04-10T08:26:12.849Z,60.03
2019-04-10T08:28:48.319Z,50.60
2019-04-10T08:31:21.210Z,51.47
2019-04-10T08:33:54.759Z,54.27
2019-04-10T08:36:27.622Z,51.77
2019-04-10T08:38:59.135Z,60.83
2019-04-10T08:41:30.874Z,54.63
2019-04-10T08:44:04.424Z,52.33
2019-04-10T08:46:37.776Z,58.07
2019-04-10T08:49:10.315Z,53.70
2019-04-10T08:51:43.676Z,55.70
2019-04-10T08:54:18.447Z,57.47
2019-04-10T08:56:49.256Z,52.00
2019-04-10T08:59:22.055Z,52.80
2019-04-10T09:01:58.064Z,58.33
2019-04-10T09:04:31.205Z,54.80
2019-04-10T09:07:03.820Z,55.43
2019-04-10T09:09:37.414Z,59.13
2019-04-10T09:12:10.031Z,56.00
2019-04-10T09:14:43.464Z,60.77
2019-04-10T09:17:15.405Z,60.87
2019-04-10T09:19:46.404Z,56.00
2019-04-10T09:22:19.111Z,55.87
2019-04-10T09:24:51.198Z,55.53
2019-04-10T09:27:22.208Z,58.97
2019-04-10T09:29:54.504Z,54.43
2019-04-10T09:32:25.143Z,65.10
2019-04-10T09:35:00.297Z,55.87
2019-04-10T09:37:32.520Z,54.30
2019-04-10T09:40:05.586Z,53.20
2019-04-10T09:42:37.286Z,56.53
2019-04-10T09:45:11.628Z,63.53
2019-04-10T09:47:43.841Z,51.70
2019-04-10T09:50:17.259Z,58.30
2019-04-10T09:52:50.399Z,58.50
2019-04-10T09:55:24.299Z,58.40
2019-04-10T09:57:54.813Z,62.63
2019-04-10T10:00:26.156Z,62.23
2019-04-10T10:02:59.297Z,57.00
2019-04-10T10:05:32.651Z,63.90
2019-04-10T10:08:04.377Z,60.83
2019-04-10T10:10:39.863Z,59.47
2019-04-10T10:13:10.383Z,60.83
2019-04-10T10:15:43.349Z,54.47
2019-04-10T10:18:17.215Z,61.00
2019-04-10T10:20:50.255Z,60.50
2019-04-10T10:23:23.292Z,59.50
2019-04-10T10:25:55.418Z,63.53
2019-04-10T10:28:29.202Z,60.83
2019-04-10T10:31:01.970Z,61.53
2019-04-10T10:33:34.450Z,64.53
2019-04-10T10:36:07.477Z,62.97
2019-04-10T10:38:40.514Z,57.83
2019-04-10T10:41:15.232Z,56.80
2019-04-10T10:43:46.760Z,60.73
2019-04-10T10:46:19.728Z,61.00
2019-04-10T10:48:53.733Z,57.73
2019-04-10T10:51:26.705Z,58.07
2019-04-10T10:54:00.229Z,55.23
2019-04-10T10:56:30.733Z,57.73
2019-04-10T10:59:01.534Z,59.40
2019-04-10T11:01:33.768Z,59.53
2019-04-10T11:04:04.820Z,60.10
2019-04-10T11:06:50.623Z,62.57
2019-04-10T11:09:14.126Z,57.43
2019-04-10T11:11:45.719Z,57.80
2019-04-10T11:14:19.193Z,58.33
2019-04-10T11:16:51.744Z,64.33
2019-04-10T11:19:24.615Z,60.33
2019-04-10T11:21:56.749Z,59.97
2019-04-10T11:24:27.898Z,58.07
2019-04-10T11:27:02.674Z,59.60
2019-04-10T11:29:34.727Z,66.33
2019-04-10T11:32:06.886Z,71.80
2019-04-10T11:34:40.775Z,69.20
2019-04-10T11:37:23.070Z,65.20
2019-04-10T11:39:47.542Z,63.50
2019-04-10T11:42:21.197Z,58.50
2019-04-10T11:44:55.490Z,62.80
2019-04-10T11:47:29.179Z,59.70
2019-04-10T11:50:01.717Z,62.10
2019-04-10T11:52:41.831Z,60.73
2019-04-10T11:55:13.766Z,58.07
2019-04-10T11:57:42.130Z,58.63
2019-04-10T12:00:19.653Z,58.70
2019-04-10T12:02:52.599Z,56.87
2019-04-10T12:05:25.810Z,65.20
2019-04-10T12:13:03.987Z,53.67
2019-04-10T12:15:35.022Z,58.50
2019-04-10T12:18:08.563Z,54.53
2019-04-10T12:20:41.101Z,60.37
2019-04-10T12:23:13.067Z,68.00
2019-04-10T12:25:45.032Z,57.73
2019-04-10T12:28:16.055Z,56.40
2019-04-10T12:30:47.757Z,52.47
2019-04-10T12:33:19.156Z,52.43
2019-04-10T12:35:50.899Z,52.60
2019-04-10T12:38:22.226Z,58.73
2019-04-10T12:40:53.118Z,57.20
2019-04-10T12:43:23.582Z,49.10
2019-04-10T12:45:54.847Z,58.40
2019-04-10T12:48:28.515Z,61.23
2019-04-10T12:51:01.399Z,56.20
2019-04-10T12:53:34.032Z,51.40
2019-04-10T12:56:08.094Z,49.33
2019-04-10T12:58:40.126Z,59.00
2019-04-10T13:01:14.256Z,47.83
2019-04-10T13:03:47.274Z,53.20
2019-04-10T13:06:19.999Z,50.53
2019-04-10T13:09:00.729Z,48.60
2019-04-10T13:11:26.855Z,49.27
2019-04-10T13:13:58.325Z,53.37
2019-04-10T13:16:30.173Z,48.77
2019-04-10T13:19:01.203Z,52.30
2019-04-10T13:21:34.656Z,57.30
2019-04-10T13:24:07.225Z,53.97
2019-04-10T13:26:40.354Z,56.00
2019-04-10T13:29:14.141Z,52.27
2019-04-10T13:31:46.736Z,55.10
2019-04-10T13:34:19.726Z,55.80
2019-04-10T13:36:51.533Z,54.50
2019-04-10T13:39:24.624Z,58.20
2019-04-10T13:41:55.084Z,55.90
2019-04-10T13:44:26.647Z,55.83
2019-04-10T13:46:59.438Z,53.43
2019-04-10T13:49:30.335Z,51.00
2019-04-10T13:52:01.569Z,54.67
2019-04-10T13:54:34.595Z,58.07
2019-04-10T13:57:05.695Z,58.13
2019-04-10T13:59:37.380Z,54.70
2019-04-10T14:02:15.378Z,54.63
2019-04-10T14:04:47.358Z,63.90
2019-04-10T14:07:18.033Z,58.47
2019-04-10T14:09:52.009Z,56.47
2019-04-10T14:12:22.927Z,58.50
2019-04-10T14:14:55.182Z,56.37
2019-04-10T14:17:28.561Z,54.10
2019-04-10T14:20:02.765Z,54.33
2019-04-10T14:22:36.159Z,52.97
2019-04-10T14:25:14.271Z,59.17
2019-04-10T14:27:46.655Z,58.33
2019-04-10T14:30:27.336Z,56.43
2019-04-10T14:32:58.751Z,53.30
2019-04-10T14:35:29.598Z,53.50
2019-04-10T14:38:01.631Z,56.43
2019-04-10T14:40:32.574Z,65.23
2019-04-10T14:43:05.258Z,58.40
2019-04-10T14:45:37.738Z,54.90
2019-04-10T14:48:10.602Z,56.50
2019-04-10T14:50:42.652Z,59.20
2019-04-10T14:53:13.917Z,64.60
2019-04-10T14:55:45.973Z,64.83
2019-04-10T14:58:23.988Z,55.30
2019-04-10T15:00:52.738Z,56.10
2019-04-10T15:03:26.508Z,59.57
2019-04-10T15:06:01.124Z,61.80
2019-04-10T15:08:31.613Z,58.40
2019-04-10T15:11:04.647Z,61.33
2019-04-10T15:13:36.160Z,54.43
2019-04-10T15:16:07.619Z,57.93
2019-04-10T15:18:40.820Z,53.70
2019-04-10T15:21:14.479Z,56.20
2019-04-10T15:23:46.858Z,55.90
2019-04-10T15:26:19.799Z,56.57
2019-04-10T15:28:53.918Z,59.60
2019-04-10T15:31:28.693Z,61.53
2019-04-10T15:33:58.917Z,57.30
2019-04-10T15:36:31.886Z,54.90
2019-04-10T15:39:06.813Z,53.80
2019-04-10T15:41:39.125Z,58.03
2019-04-10T15:44:12.012Z,57.70
2019-04-10T15:46:43.894Z,58.20
2019-04-10T15:49:17.412Z,55.10
2019-04-10T15:51:49.730Z,60.27
2019-04-10T15:54:23.657Z,51.23
2019-04-10T15:56:55.157Z,55.30
2019-04-10T15:59:26.130Z,64.83
2019-04-10T16:01:59.434Z,63.23
2019-04-10T16:04:32.049Z,60.77
2019-04-10T16:07:06.152Z,61.70
2019-04-10T16:09:48.596Z,59.53
2019-04-10T16:12:15.191Z,67.13
2019-04-10T16:14:47.122Z,60.93
2019-04-10T16:17:31.366Z,61.17
2019-04-10T16:20:19.740Z,68.00
2019-04-10T16:23:08.218Z,65.53
2019-04-10T16:25:40.475Z,57.97
2019-04-10T16:28:12.603Z,57.77
2019-04-10T16:30:44.063Z,60.73
2019-04-10T16:33:17.108Z,57.47
2019-04-10T16:35:49.090Z,63.60
2019-04-10T16:38:20.557Z,64.63
2019-04-10T16:40:52.187Z,59.97
2019-04-10T16:43:41.554Z,60.83
2019-04-10T16:46:30.211Z,64.60
2019-04-10T16:49:18.647Z,59.57
2019-04-10T16:52:07.150Z,60.73
2019-04-10T16:54:55.640Z,61.97
2019-04-10T16:57:45.273Z,59.10
2019-04-10T17:00:33.892Z,58.00
2019-04-10T17:03:09.707Z,58.95
2019-04-10T17:05:41.873Z,57.53
2019-04-10T17:08:14.391Z,60.27
2019-04-10T17:10:45.717Z,62.13
2019-04-10T17:13:16.338Z,67.40
2019-04-10T17:15:49.952Z,60.30
2019-04-10T17:18:21.279Z,63.43
2019-04-10T17:20:52.897Z,64.10
2019-04-10T17:23:24.801Z,62.20
2019-04-10T17:25:56.236Z,60.23
2019-04-10T17:28:28.310Z,55.33
2019-04-10T17:31:00.173Z,58.93
2019-04-10T17:33:32.265Z,59.37
2019-04-10T17:36:02.805Z,59.73
2019-04-10T17:38:34.737Z,57.10
2019-04-10T17:41:07.215Z,62.77
2019-04-10T17:43:38.461Z,58.77
2019-04-10T17:46:09.296Z,58.83
2019-04-10T17:48:40.389Z,54.73
2019-04-10T17:51:12.117Z,55.07
2019-04-10T17:53:43.092Z,55.53
2019-04-10T17:56:14.111Z,65.93
2019-04-10T17:58:45.640Z,56.23
2019-04-10T18:01:19.288Z,56.33
2019-04-10T18:04:08.001Z,62.80
2019-04-10T18:06:57.501Z,56.70
2019-04-10T18:09:46.443Z,56.73
2019-04-10T18:12:34.756Z,57.33
2019-04-10T18:15:24.031Z,54.70
2019-04-10T18:18:13.650Z,50.50
2019-04-10T18:20:44.459Z,52.87
2019-04-10T18:23:15.523Z,59.67
2019-04-10T18:25:48.036Z,53.40
2019-04-10T18:28:22.495Z,49.90
2019-04-10T18:30:54.884Z,50.73
2019-04-10T18:33:28.653Z,50.57
2019-04-10T18:35:59.795Z,46.17
2019-04-10T18:38:30.841Z,48.23
2019-04-10T18:41:06.613Z,50.70
2019-04-10T18:43:36.075Z,45.73
2019-04-10T18:46:12.858Z,49.03
2019-04-10T18:48:40.871Z,50.67
2019-04-10T18:51:14.030Z,55.07
2019-04-10T18:53:45.737Z,48.40
2019-04-10T18:56:17.421Z,46.63
2019-04-10T18:59:05.470Z,45.13
2019-04-10T19:01:59.164Z,43.50
2019-04-10T19:04:37.489Z,49.30
2019-04-10T19:07:09.119Z,46.60
2019-04-10T19:09:41.038Z,48.27
2019-04-10T19:12:12.740Z,47.40
2019-04-10T19:14:44.636Z,47.30
2019-04-10T19:17:17.041Z,41.67
2019-04-10T19:19:48.571Z,41.37
2019-04-10T19:22:20.359Z,43.30
2019-04-10T19:24:50.928Z,42.13
2019-04-10T19:27:22.187Z,44.00
2019-04-10T19:29:52.844Z,41.53
2019-04-10T19:32:33.297Z,44.40
2019-04-10T19:35:04.875Z,39.13
2019-04-10T19:37:36.628Z,35.23
2019-04-10T19:40:09.211Z,36.93
2019-04-10T19:42:39.815Z,35.23
2019-04-10T19:45:11.994Z,42.03
2019-04-10T19:47:44.123Z,41.07
2019-04-10T19:50:14.811Z,39.70
2019-04-10T19:52:46.744Z,40.23
2019-04-10T19:55:17.758Z,35.60
2019-04-10T19:57:48.175Z,40.07
2019-04-10T20:00:22.161Z,35.73
2019-04-10T20:02:53.562Z,43.77
2019-04-10T20:05:25.317Z,37.63
2019-04-10T20:07:57.404Z,36.27
2019-04-10T20:10:28.125Z,36.53
2019-04-10T20:12:59.918Z,32.53
2019-04-10T20:15:31.072Z,33.53
2019-04-10T20:18:02.889Z,34.70
2019-04-10T20:20:35.550Z,37.80
2019-04-10T20:23:06.922Z,45.83
2019-04-10T20:25:38.803Z,35.20
2019-04-10T20:28:09.616Z,34.60
2019-04-10T20:30:42.486Z,35.03
2019-04-10T20:33:13.277Z,32.80
2019-04-10T20:35:44.648Z,32.20
2019-04-10T20:38:16.259Z,38.53
2019-04-10T20:40:48.128Z,39.40
2019-04-10T20:43:19.129Z,40.03
2019-04-10T20:45:50.931Z,39.03
2019-04-10T20:48:22.819Z,33.70
2019-04-10T20:50:55.096Z,38.47
2019-04-10T20:53:26.518Z,35.30
2019-04-10T20:55:59.873Z,37.53
2019-04-10T20:58:32.510Z,33.33
2019-04-10T21:01:04.462Z,42.63
2019-04-10T21:03:35.916Z,40.37
2019-04-10T21:06:07.250Z,32.27
2019-04-10T21:08:40.399Z,30.67
2019-04-10T21:11:11.702Z,34.53
2019-04-10T21:13:42.595Z,30.37
2019-04-10T21:16:13.974Z,34.37
2019-04-10T21:18:46.212Z,35.27
2019-04-10T21:21:16.661Z,42.33
2019-04-10T21:23:48.798Z,33.90
2019-04-10T21:26:20.628Z,35.90
2019-04-10T21:28:51.733Z,41.73
2019-04-10T21:31:48.326Z,38.00
2019-04-10T21:34:30.441Z,45.10
2019-04-10T21:37:03.794Z,38.37
2019-04-10T21:39:35.966Z,33.37
2019-04-10T21:42:15.819Z,37.73
2019-04-10T21:44:42.834Z,38.43
2019-04-10T21:47:15.170Z,34.37
2019-04-10T21:49:48.473Z,33.20
2019-04-10T21:52:20.562Z,41.00
2019-04-10T21:54:57.017Z,28.50
2019-04-10T21:57:26.376Z,33.50
2019-04-10T21:59:57.531Z,37.60
2019-04-10T22:02:29.521Z,31.93
2019-04-10T22:05:00.163Z,38.07
2019-04-10T22:08:09.229Z,34.57
2019-04-10T22:10:45.155Z,36.70
2019-04-10T22:13:17.867Z,31.27
2019-04-10T22:15:50.131Z,36.47
2019-04-10T22:18:21.145Z,33.30
2019-04-10T22:20:52.676Z,35.60
2019-04-10T22:23:24.551Z,37.23
2019-04-10T22:25:56.647Z,32.83
2019-04-10T22:28:27.299Z,36.90
2019-04-10T22:31:00.237Z,31.10
2019-04-10T22:33:32.013Z,30.30
2019-04-10T22:36:03.037Z,38.30
2019-04-10T22:38:33.797Z,34.07
2019-04-10T22:41:18.770Z,30.43
2019-04-10T22:43:40.758Z,32.53
2019-04-10T22:46:13.079Z,31.80
2019-04-10T22:48:43.749Z,37.70
2019-04-10T22:51:15.494Z,30.70
2019-04-10T22:53:47.959Z,33.53
2019-04-10T22:56:23.174Z,31.60
2019-04-10T22:58:54.322Z,35.00
2019-04-10T23:01:25.359Z,35.57
2019-04-10T23:03:57.470Z,34.90
2019-04-10T23:06:29.231Z,36.40
2019-04-10T23:09:00.672Z,38.03
2019-04-10T23:11:37.356Z,28.27
2019-04-10T23:14:06.717Z,30.67
2019-04-10T23:16:37.940Z,40.23
2019-04-10T23:19:09.954Z,29.90
2019-04-10T23:21:41.310Z,40.57
2019-04-10T23:24:13.659Z,30.00
2019-04-10T23:26:45.032Z,42.00
2019-04-10T23:29:16.044Z,32.93
2019-04-10T23:31:48.058Z,31.13
2019-04-10T23:34:20.832Z,33.63
2019-04-10T23:36:51.448Z,31.90
2019-04-10T23:39:23.976Z,27.60
2019-04-10T23:41:54.842Z,30.10
2019-04-10T23:44:26.993Z,35.47
2019-04-10T23:46:57.865Z,31.40
2019-04-10T23:49:29.853Z,31.47
2019-04-10T23:52:01.403Z,30.50
2019-04-10T23:54:33.349Z,29.50
2019-04-10T23:57:05.111Z,31.73
2019-04-10T23:59:37.050Z,35.67
